createdAt,value
2022-11-25T04:18:33.555Z,100294.44
2022-11-25T04:24:03.394Z,100291.09
2022-11-25T04:29:31.874Z,100304.47
2022-11-25T04:35:07.176Z,100311.78
2022-11-25T04:40:37.146Z,100308.19
2022-11-25T04:46:19.899Z,100299.91
2022-11-25T04:51:53.395Z,100305.56
2022-11-25T04:57:24.345Z,100315.78
2022-11-25T05:02:53.293Z,100324.38
2022-11-25T05:08:24.693Z,100327.63
2022-11-25T05:13:54.261Z,100320.69
2022-11-25T05:19:23.173Z,100325.13
2022-11-25T05:24:54.906Z,100325.13
2022-11-25T05:30:24.268Z,100332.53
2022-11-25T05:35:57.949Z,100337.91
2022-11-25T05:41:32.179Z,100340.22
2022-11-25T05:47:00.926Z,100343.75
2022-11-25T05:52:29.926Z,100351.19
2022-11-25T05:58:06.161Z,100349.59
2022-11-25T06:03:36.865Z,100344.59
2022-11-25T06:09:06.349Z,100359.44
2022-11-25T06:14:36.538Z,100351.19
2022-11-25T06:20:09.060Z,100353.69
2022-11-25T06:25:38.957Z,100346.63
2022-11-25T06:31:13.690Z,100359.16
2022-11-25T06:36:51.993Z,100368.50
2022-11-25T06:42:21.165Z,100372.22
2022-11-25T06:47:51.839Z,100382.22
2022-11-25T06:53:24.065Z,100386.31
2022-11-25T06:58:53.460Z,100390.59
2022-11-25T07:04:23.370Z,100383.19
2022-11-25T07:09:52.490Z,100383.66
2022-11-25T07:15:21.259Z,100389.88
2022-11-25T07:20:51.510Z,100391.16
2022-11-25T07:26:22.377Z,100396.09
2022-11-25T07:31:51.569Z,100391.00
2022-11-25T07:37:21.778Z,100384.59
2022-11-25T07:42:51.358Z,100393.13
2022-11-25T07:48:20.239Z,100393.16
2022-11-25T07:53:52.016Z,100383.78
2022-11-25T07:59:22.995Z,100392.88
2022-11-25T08:04:52.280Z,100395.91
2022-11-25T08:10:22.872Z,100396.59
2022-11-25T08:15:52.412Z,100398.25
2022-11-25T08:21:21.588Z,100393.25
2022-11-25T08:26:53.326Z,100396.59
2022-11-25T08:32:22.021Z,100409.66
2022-11-25T08:37:51.657Z,100410.69
2022-11-25T08:43:26.411Z,100415.69
2022-11-25T08:48:58.401Z,100417.75
2022-11-25T08:54:27.196Z,100418.75
2022-11-25T08:59:57.690Z,100403.63
2022-11-25T09:05:26.311Z,100411.59
2022-11-25T09:10:55.089Z,100417.38
2022-11-25T09:16:26.954Z,100422.94
2022-11-25T09:21:56.336Z,100422.56
2022-11-25T09:27:25.281Z,100423.47
2022-11-25T09:32:56.666Z,100422.31
2022-11-25T09:38:25.371Z,100421.16
2022-11-25T23:59:42.135Z,100757.25
